Time;durP1;ratioP1;P1;durP2;ratioP2;P2;SDS_P1;SDS_P2;PMS_P1;PMS_P2;Temp;Humidity;BMP_temperature;BMP_pressure;BME280_temperature;BME280_humidity;BME280_pressure;Samples;Min_cycle;Max_cycle;Signal;HPM_P1;HPM_P2
2021/04/28 00:02:01;;;;;;;7.33;3.13;;;9.60;57.40;;;;;;5065638;28;20369;-59
2021/04/28 00:04:27;;;;;;;2.60;0.97;;;10.90;58.50;;;;;;5066655;28;20056;-58
2021/04/28 00:06:53;;;;;;;2.43;1.53;;;10.90;57.10;;;;;;5066195;28;20464;-58
2021/04/28 00:09:20;;;;;;;5.47;1.33;;;11.00;57.30;;;;;;5080804;28;20128;-58
2021/04/28 00:11:46;;;;;;;2.93;1.53;;;10.90;58.30;;;;;;5065885;28;20895;-58
2021/04/28 00:14:12;;;;;;;3.63;2.00;;;11.00;58.20;;;;;;5065762;28;20032;-58
2021/04/28 00:16:38;;;;;;;3.90;1.90;;;10.90;57.90;;;;;;5066099;28;20044;-58
2021/04/28 00:19:06;;;;;;;6.07;1.40;;;11.00;57.20;;;;;;5066188;28;20024;-58
2021/04/28 00:21:32;;;;;;;3.20;1.47;;;10.90;57.20;;;;;;5065116;28;20035;-58
2021/04/28 00:23:58;;;;;;;1.70;0.97;;;10.90;57.80;;;;;;5065765;28;20032;-58
2021/04/28 00:26:24;;;;;;;3.87;1.80;;;10.80;57.00;;;;;;5067580;28;20036;-58
2021/04/28 00:28:50;;;;;;;6.67;3.23;;;10.80;58.20;;;;;;5068057;28;20078;-58
2021/04/28 00:31:15;;;;;;;1.60;0.93;;;10.90;59.00;;;;;;5066458;28;20036;-58
2021/04/28 00:33:41;;;;;;;3.37;1.23;;;10.90;57.50;;;;;;5069187;28;20040;-57
2021/04/28 00:36:07;;;;;;;1.77;1.10;;;10.80;57.30;;;;;;5068493;28;20472;-58
2021/04/28 00:38:36;;;;;;;5.77;2.70;;;10.70;57.40;;;;;;5067765;28;20043;-58
2021/04/28 00:41:09;;;;;;;2.70;1.10;;;10.70;59.70;;;;;;5065499;28;20328;-58
2021/04/28 00:43:35;;;;;;;3.67;1.40;;;10.70;58.10;;;;;;5066328;28;20024;-58
2021/04/28 00:46:01;;;;;;;4.73;1.10;;;10.70;58.20;;;;;;5083867;28;20024;-58
2021/04/28 00:48:27;;;;;;;2.43;1.37;;;10.70;58.30;;;;;;5067304;28;20070;-59
2021/04/28 00:50:53;;;;;;;1.83;1.17;;;10.70;58.20;;;;;;5067412;28;20024;-59
2021/04/28 00:53:21;;;;;;;7.77;1.63;;;10.70;58.50;;;;;;5081357;28;20047;-57
2021/04/28 00:55:47;;;;;;;2.80;1.13;;;10.70;59.10;;;;;;5066787;28;20077;-58
2021/04/28 00:58:13;;;;;;;3.93;1.67;;;10.60;58.90;;;;;;5050536;28;20396;-58
2021/04/28 01:00:44;;;;;;;7.80;1.37;;;10.60;60.00;;;;;;5063892;28;20202;-58
2021/04/28 01:03:09;;;;;;;3.27;1.47;;;10.60;60.00;;;;;;5064438;28;20751;-59
2021/04/28 01:05:36;;;;;;;5.00;1.50;;;10.60;59.50;;;;;;5080404;28;20032;-59
2021/04/28 01:08:06;;;;;;;8.30;3.03;;;10.60;60.80;;;;;;5064627;28;20024;-59
2021/04/28 01:10:35;;;;;;;7.37;2.10;;;10.60;63.60;;;;;;5064961;28;20032;-59
2021/04/28 01:13:07;;;;;;;6.70;1.77;;;10.60;61.30;;;;;;5066186;28;20036;-59
2021/04/28 01:15:34;;;;;;;3.30;1.58;;;10.50;60.60;;;;;;5066231;28;20033;-59
2021/04/28 01:18:01;;;;;;;5.03;1.70;;;10.50;61.90;;;;;;5067627;28;20036;-58
2021/04/28 01:20:32;;;;;;;4.57;1.93;;;10.40;62.00;;;;;;5066225;28;20055;-58
2021/04/28 01:23:01;;;;;;;4.47;2.07;;;10.40;62.20;;;;;;5065363;28;20343;-58
2021/04/28 01:25:30;;;;;;;3.03;1.30;;;10.30;62.50;;;;;;5064679;28;20043;-58
2021/04/28 01:28:06;;;;;;;4.33;2.00;;;10.30;63.40;;;;;;5080745;28;20040;-58
2021/04/28 01:30:39;;;;;;;6.27;2.23;;;10.30;64.60;;;;;;5063882;28;20039;-58
2021/04/28 01:33:09;;;;;;;8.03;2.70;;;10.30;63.90;;;;;;5062475;28;20555;-60
2021/04/28 01:35:37;;;;;;;8.33;1.87;;;10.20;65.60;;;;;;5068536;28;20033;-59
2021/04/28 01:38:05;;;;;;;3.63;1.83;;;10.20;66.00;;;;;;5084681;28;20036;-58
2021/04/28 01:40:33;;;;;;;8.07;2.57;;;10.10;64.60;;;;;;5085823;28;20384;-57
2021/04/28 01:42:58;;;;;;;5.70;2.73;;;10.20;67.70;;;;;;5069111;28;21907;-58
2021/04/28 01:45:24;;;;;;;4.97;2.30;;;10.20;67.20;;;;;;5084741;28;20111;-58
2021/04/28 01:47:53;;;;;;;3.73;1.30;;;10.10;66.40;;;;;;5068986;28;20078;-58
2021/04/28 01:50:21;;;;;;;3.13;1.30;;;10.10;64.60;;;;;;5068082;28;20607;-58
2021/04/28 01:52:47;;;;;;;4.43;2.00;;;10.00;64.60;;;;;;5069110;28;20127;-58
2021/04/28 01:55:13;;;;;;;2.67;1.57;;;9.90;67.20;;;;;;5068022;28;20032;-58
2021/04/28 01:57:40;;;;;;;4.90;1.23;;;9.90;65.10;;;;;;5068567;28;20502;-58
2021/04/28 02:00:08;;;;;;;2.13;1.10;;;9.90;66.30;;;;;;5085110;28;20067;-58
2021/04/28 02:02:37;;;;;;;6.23;2.30;;;9.80;68.10;;;;;;5068111;28;20095;-58
2021/04/28 02:05:08;;;;;;;6.03;2.50;;;9.80;69.60;;;;;;5081071;28;20114;-58
2021/04/28 02:07:34;;;;;;;2.83;1.67;;;9.90;70.50;;;;;;5084245;28;20036;-58
2021/04/28 02:10:01;;;;;;;3.67;1.80;;;9.80;71.50;;;;;;5068812;28;20035;-57
2021/04/28 02:12:29;;;;;;;5.33;2.53;;;9.90;72.50;;;;;;5068654;28;20028;-58
2021/04/28 02:14:59;;;;;;;7.27;2.57;;;9.80;73.10;;;;;;5068275;28;20660;-59
2021/04/28 02:17:27;;;;;;;8.53;2.00;;;9.70;73.50;;;;;;5070588;28;20036;-58
2021/04/28 02:19:54;;;;;;;5.60;2.17;;;9.60;74.60;;;;;;5071598;28;20032;-58
2021/04/28 02:22:19;;;;;;;9.23;2.53;;;9.70;75.10;;;;;;5067743;28;20039;-59
2021/04/28 02:24:47;;;;;;;4.10;1.60;;;9.60;74.60;;;;;;5067002;28;20028;-58
2021/04/28 02:27:12;;;;;;;3.67;1.67;;;9.50;72.90;;;;;;5069189;28;20047;-58
2021/04/28 02:29:40;;;;;;;5.47;2.10;;;9.40;75.30;;;;;;5069119;28;20029;-58
2021/04/28 02:32:06;;;;;;;4.90;1.77;;;9.40;75.30;;;;;;5069391;28;20057;-58
2021/04/28 02:34:32;;;;;;;5.17;1.73;;;9.40;75.40;;;;;;5054809;28;20578;-58
2021/04/28 02:36:59;;;;;;;10.73;3.33;;;9.40;75.80;;;;;;5084944;28;20029;-58
2021/04/28 02:39:27;;;;;;;7.03;2.20;;;9.40;77.90;;;;;;5084117;28;20036;-58
2021/04/28 02:41:54;;;;;;;4.83;2.30;;;9.40;74.30;;;;;;5066307;28;20035;-58
2021/04/28 02:44:28;;;;;;;4.17;1.90;;;9.30;75.30;;;;;;5055411;28;20034;-58
2021/04/28 02:46:56;;;;;;;4.13;1.90;;;9.40;74.10;;;;;;5066925;28;20035;-58
2021/04/28 02:49:23;;;;;;;4.23;1.90;;;9.40;74.50;;;;;;5069668;28;20032;-58
2021/04/28 02:51:51;;;;;;;10.77;3.47;;;9.40;74.60;;;;;;5069057;28;20047;-58
2021/04/28 02:54:19;;;;;;;8.97;2.77;;;9.40;76.00;;;;;;5069919;28;20047;-58
2021/04/28 02:56:48;;;;;;;7.10;2.63;;;9.30;75.10;;;;;;5068491;28;20040;-58
2021/04/28 02:59:14;;;;;;;5.07;1.97;;;9.30;75.90;;;;;;5068619;28;20471;-58
2021/04/28 03:01:41;;;;;;;6.10;2.50;;;9.40;75.90;;;;;;5085307;28;20068;-58
2021/04/28 03:04:08;;;;;;;5.43;1.93;;;9.30;77.20;;;;;;5085874;28;20032;-58
2021/04/28 03:06:37;;;;;;;6.27;3.07;;;9.40;75.70;;;;;;5067899;28;20971;-58
2021/04/28 03:09:05;;;;;;;4.07;2.47;;;9.30;77.20;;;;;;5069204;28;20041;-57
2021/04/28 03:11:32;;;;;;;5.30;2.60;;;9.30;78.00;;;;;;5068944;28;20028;-58
2021/04/28 03:13:58;;;;;;;6.37;3.10;;;9.20;78.30;;;;;;5067901;28;20038;-57
2021/04/28 03:16:30;;;;;;;3.57;1.73;;;9.30;78.10;;;;;;5067602;28;20033;-58
2021/04/28 03:18:59;;;;;;;6.00;2.28;;;9.20;77.60;;;;;;5083400;28;20032;-58
2021/04/28 03:21:29;;;;;;;9.10;3.13;;;9.20;78.70;;;;;;5068167;28;20040;-57
2021/04/28 03:23:57;;;;;;;6.67;2.07;;;9.20;78.50;;;;;;5067289;28;20031;-58
2021/04/28 03:26:25;;;;;;;4.47;2.03;;;9.20;79.40;;;;;;5066537;28;20030;-57
2021/04/28 03:28:50;;;;;;;3.00;1.57;;;9.20;75.90;;;;;;5066310;28;20364;-60
2021/04/28 03:31:16;;;;;;;4.20;2.10;;;9.10;75.70;;;;;;5064751;28;20024;-60
2021/04/28 03:33:41;;;;;;;3.97;2.10;;;9.20;78.10;;;;;;5082189;28;20070;-58
2021/04/28 03:36:07;;;;;;;3.90;2.03;;;9.20;79.10;;;;;;5067498;28;20040;-58
2021/04/28 03:38:33;;;;;;;2.27;1.70;;;9.10;77.10;;;;;;5066399;28;20033;-58
2021/04/28 03:41:01;;;;;;;4.77;2.20;;;9.00;76.90;;;;;;5067019;28;20063;-59
2021/04/28 03:43:27;;;;;;;10.17;2.60;;;9.00;78.70;;;;;;5066542;28;20054;-58
2021/04/28 03:45:54;;;;;;;6.97;2.40;;;9.00;80.90;;;;;;5066933;28;20024;-58
2021/04/28 03:48:19;;;;;;;5.20;1.93;;;9.00;80.70;;;;;;5066167;28;20456;-57
2021/04/28 03:50:45;;;;;;;4.63;2.57;;;9.00;77.90;;;;;;5066146;28;20090;-57
2021/04/28 03:53:11;;;;;;;6.13;3.00;;;9.00;80.90;;;;;;5051229;28;20044;-58
2021/04/28 03:55:37;;;;;;;8.37;3.43;;;9.00;78.40;;;;;;5065821;28;20035;-58
2021/04/28 03:58:04;;;;;;;4.17;1.90;;;9.00;79.30;;;;;;5051404;28;20809;-58
2021/04/28 04:00:30;;;;;;;9.20;2.63;;;8.90;77.00;;;;;;5066580;28;20086;-58
2021/04/28 04:02:56;;;;;;;4.93;2.57;;;8.90;78.70;;;;;;5065939;28;20467;-58
2021/04/28 04:05:22;;;;;;;4.83;2.23;;;8.90;80.00;;;;;;5082050;28;20123;-58
2021/04/28 04:07:48;;;;;;;7.40;2.07;;;8.90;80.30;;;;;;5066505;28;20043;-59
2021/04/28 04:10:20;;;;;;;8.20;2.50;;;8.90;80.70;;;;;;5066092;28;20448;-57
2021/04/28 04:12:48;;;;;;;3.67;1.98;;;8.80;80.90;;;;;;5066416;28;20032;-58
2021/04/28 04:15:16;;;;;;;4.17;2.13;;;8.80;80.80;;;;;;5066333;28;20032;-58
2021/04/28 04:17:44;;;;;;;10.13;2.07;;;8.80;80.30;;;;;;5064403;28;20075;-58
2021/04/28 04:20:10;;;;;;;3.23;1.77;;;8.80;81.10;;;;;;5081346;28;20036;-57
2021/04/28 04:22:38;;;;;;;5.60;3.00;;;8.80;80.10;;;;;;5064573;28;20032;-57
2021/04/28 04:25:06;;;;;;;4.33;2.57;;;8.80;82.10;;;;;;5065859;28;20573;-57
2021/04/28 04:27:33;;;;;;;4.53;2.30;;;8.80;82.80;;;;;;5081247;28;20040;-57
2021/04/28 04:29:59;;;;;;;5.40;2.10;;;8.80;83.30;;;;;;5065310;28;20034;-58
2021/04/28 04:32:27;;;;;;;5.77;1.90;;;8.80;80.90;;;;;;5065817;28;20085;-57
2021/04/28 04:34:52;;;;;;;4.30;2.13;;;8.80;79.00;;;;;;5081899;28;20060;-58
2021/04/28 04:37:18;;;;;;;6.20;2.67;;;8.80;80.50;;;;;;5065281;28;20512;-57
2021/04/28 04:39:44;;;;;;;5.40;1.67;;;8.70;79.70;;;;;;5064453;28;20040;-58
2021/04/28 04:42:13;;;;;;;3.13;1.50;;;8.70;78.00;;;;;;5065748;28;20066;-58
2021/04/28 04:44:39;;;;;;;4.47;1.90;;;8.70;78.30;;;;;;5066053;28;20444;-58
2021/04/28 04:47:05;;;;;;;3.37;1.93;;;8.70;80.30;;;;;;5064252;28;20035;-57
2021/04/28 04:49:30;;;;;;;3.90;1.77;;;8.70;78.00;;;;;;5065669;28;20032;-58
2021/04/28 04:51:56;;;;;;;4.27;2.17;;;8.70;77.70;;;;;;5051013;28;20067;-58
2021/04/28 04:54:22;;;;;;;7.73;2.10;;;8.80;79.60;;;;;;5065000;28;20527;-57
2021/04/28 04:56:48;;;;;;;3.27;1.70;;;8.80;80.00;;;;;;5064711;28;20119;-58
2021/04/28 04:59:15;;;;;;;5.00;1.80;;;8.90;79.60;;;;;;5063376;28;20094;-58
2021/04/28 05:01:41;;;;;;;6.17;2.87;;;8.90;77.50;;;;;;5064457;28;20052;-58
2021/04/28 05:04:07;;;;;;;2.63;1.47;;;9.00;78.70;;;;;;5051516;28;20086;-57
2021/04/28 05:06:37;;;;;;;4.17;2.00;;;9.00;76.20;;;;;;5080986;28;20052;-58
2021/04/28 05:09:06;;;;;;;3.77;2.13;;;8.90;77.70;;;;;;5064024;28;20108;-58
2021/04/28 05:11:31;;;;;;;4.67;1.97;;;8.90;79.10;;;;;;5065438;28;20024;-58
2021/04/28 05:13:57;;;;;;;3.90;1.70;;;9.00;75.90;;;;;;5065491;28;20483;-57
2021/04/28 05:16:25;;;;;;;6.40;2.97;;;9.00;75.70;;;;;;5064855;28;20118;-58
2021/04/28 05:18:52;;;;;;;4.77;2.30;;;9.10;75.50;;;;;;5064149;28;20043;-58
2021/04/28 05:21:22;;;;;;;3.00;1.93;;;9.10;74.70;;;;;;5067077;28;20028;-58
2021/04/28 05:23:48;;;;;;;2.90;1.43;;;9.10;75.80;;;;;;5065300;28;20024;-58
2021/04/28 05:26:14;;;;;;;2.60;1.83;;;9.10;74.50;;;;;;5080444;28;20054;-58
2021/04/28 05:28:40;;;;;;;3.67;1.20;;;9.10;73.90;;;;;;5064371;28;20047;-58
2021/04/28 05:31:11;;;;;;;3.97;2.20;;;9.10;74.20;;;;;;5065444;28;20016;-58
2021/04/28 05:33:40;;;;;;;6.87;2.70;;;9.20;73.90;;;;;;5067590;28;20032;-59
2021/04/28 05:36:06;;;;;;;5.43;2.23;;;9.10;75.50;;;;;;5065718;28;20028;-57
2021/04/28 05:38:32;;;;;;;5.00;2.27;;;9.30;78.00;;;;;;5064298;28;20028;-59
2021/04/28 05:41:00;;;;;;;3.77;2.50;;;9.40;74.40;;;;;;5081139;28;20449;-58
2021/04/28 05:43:26;;;;;;;1.87;1.50;;;9.50;73.90;;;;;;5064621;28;20871;-58
2021/04/28 05:45:52;;;;;;;3.17;2.10;;;9.60;72.60;;;;;;5064204;28;20158;-58
2021/04/28 05:48:18;;;;;;;4.53;2.33;;;9.60;72.00;;;;;;5064592;28;20048;-58
2021/04/28 05:50:45;;;;;;;3.77;1.70;;;9.60;73.20;;;;;;5079748;28;20119;-58
2021/04/28 05:53:13;;;;;;;3.97;2.10;;;9.60;71.60;;;;;;5064435;28;20043;-58
2021/04/28 05:55:39;;;;;;;2.87;1.57;;;9.80;72.20;;;;;;5062547;28;20502;-58
2021/04/28 05:58:06;;;;;;;2.97;1.50;;;9.90;71.70;;;;;;5064507;28;20464;-58
2021/04/28 06:00:35;;;;;;;4.13;1.80;;;9.90;71.60;;;;;;5060793;28;20059;-58
2021/04/28 06:03:00;;;;;;;3.60;1.90;;;10.00;71.30;;;;;;5063073;28;20119;-58
2021/04/28 06:05:27;;;;;;;2.30;1.40;;;10.00;70.30;;;;;;5064928;28;20448;-58
2021/04/28 06:07:53;;;;;;;5.20;2.03;;;10.00;69.00;;;;;;5063795;28;20029;-58
2021/04/28 06:10:19;;;;;;;4.53;1.63;;;9.90;69.30;;;;;;5064225;28;20028;-57
2021/04/28 06:12:48;;;;;;;7.53;1.97;;;10.00;69.00;;;;;;5064977;28;20047;-59
2021/04/28 06:15:15;;;;;;;6.30;1.47;;;10.50;69.80;;;;;;5063509;28;20101;-58
2021/04/28 06:17:42;;;;;;;7.10;2.10;;;11.10;68.30;;;;;;5078862;28;20033;-58
2021/04/28 06:20:14;;;;;;;5.97;1.80;;;11.20;62.50;;;;;;5063805;28;20040;-58
2021/04/28 06:22:41;;;;;;;2.15;1.40;;;11.00;62.60;;;;;;5065244;28;20024;-58
2021/04/28 06:25:08;;;;;;;4.37;1.93;;;10.80;63.40;;;;;;5066870;28;20032;-59
2021/04/28 06:27:34;;;;;;;3.83;2.37;;;10.70;64.20;;;;;;5066509;28;20519;-59
2021/04/28 06:30:03;;;;;;;5.13;2.47;;;10.60;64.40;;;;;;5065211;28;20036;-58
2021/04/28 06:32:29;;;;;;;2.40;1.20;;;10.60;65.00;;;;;;5066932;28;20024;-58
2021/04/28 06:34:59;;;;;;;6.47;2.10;;;10.70;64.40;;;;;;5066025;28;20429;-57
2021/04/28 06:37:25;;;;;;;4.60;1.57;;;10.70;64.30;;;;;;5067137;28;20108;-59
2021/04/28 06:39:50;;;;;;;4.37;2.33;;;10.70;65.50;;;;;;5069703;28;20561;-58
2021/04/28 06:42:19;;;;;;;6.60;1.80;;;10.80;64.10;;;;;;5068461;28;20467;-58
2021/04/28 06:44:45;;;;;;;7.50;2.00;;;10.90;64.30;;;;;;5067110;28;20032;-58
2021/04/28 06:47:10;;;;;;;3.93;1.70;;;11.00;63.20;;;;;;5067563;28;20023;-58
2021/04/28 06:49:38;;;;;;;3.17;1.77;;;11.10;62.30;;;;;;5082839;28;20988;-58
2021/04/28 06:52:06;;;;;;;4.43;2.23;;;11.20;62.90;;;;;;5083120;28;20032;-58
2021/04/28 06:54:32;;;;;;;4.83;1.93;;;11.30;63.20;;;;;;5067887;28;20032;-60
2021/04/28 06:56:58;;;;;;;12.80;1.90;;;11.40;61.50;;;;;;5065862;28;20043;-58
2021/04/28 06:59:23;;;;;;;4.10;2.10;;;11.40;61.20;;;;;;5068206;28;20032;-59
2021/04/28 07:01:52;;;;;;;7.17;1.80;;;11.40;61.50;;;;;;5067922;28;20060;-58
2021/04/28 07:04:21;;;;;;;4.47;2.03;;;11.50;62.70;;;;;;5067497;28;20425;-58
2021/04/28 07:06:52;;;;;;;3.30;1.87;;;11.70;61.90;;;;;;5067812;28;20062;-58
2021/04/28 07:09:20;;;;;;;5.40;1.60;;;11.80;60.40;;;;;;5083029;28;20024;-59
2021/04/28 07:11:46;;;;;;;10.70;1.90;;;11.90;60.00;;;;;;5067932;28;20033;-58
2021/04/28 07:14:12;;;;;;;5.53;3.57;;;12.00;60.30;;;;;;5067334;28;20039;-58
2021/04/28 07:16:38;;;;;;;4.50;1.80;;;12.10;60.60;;;;;;5068117;28;20082;-58
2021/04/28 07:19:04;;;;;;;7.70;2.60;;;12.20;60.10;;;;;;5066841;28;20044;-57
2021/04/28 07:21:30;;;;;;;4.73;2.20;;;12.30;59.60;;;;;;5065882;28;20059;-60
2021/04/28 07:24:00;;;;;;;4.57;2.00;;;12.40;60.10;;;;;;5064489;28;20453;-59
2021/04/28 07:26:26;;;;;;;4.77;2.33;;;12.50;58.50;;;;;;5065977;28;20028;-58
2021/04/28 07:28:51;;;;;;;4.97;2.33;;;12.60;59.10;;;;;;5066586;28;20024;-58
2021/04/28 07:31:21;;;;;;;6.60;2.33;;;12.70;58.70;;;;;;5066464;28;20029;-59
2021/04/28 07:33:47;;;;;;;5.73;2.00;;;12.80;58.80;;;;;;5067090;28;20071;-59
2021/04/28 07:36:15;;;;;;;5.83;1.90;;;12.80;58.10;;;;;;5065746;28;20471;-59
2021/04/28 07:38:41;;;;;;;3.67;1.93;;;12.90;58.10;;;;;;5066414;28;20035;-58
2021/04/28 07:41:09;;;;;;;4.53;2.00;;;13.00;56.80;;;;;;5066507;28;20452;-58
2021/04/28 07:43:36;;;;;;;4.10;2.00;;;12.90;57.00;;;;;;5066075;28;20630;-58
2021/04/28 07:46:01;;;;;;;4.83;2.13;;;13.00;58.10;;;;;;5065738;28;20039;-58
2021/04/28 07:48:28;;;;;;;3.17;1.60;;;13.20;57.30;;;;;;5082282;28;20334;-58
2021/04/28 07:50:53;;;;;;;4.17;1.70;;;13.20;57.10;;;;;;5066160;28;21864;-58
2021/04/28 07:53:19;;;;;;;6.27;2.07;;;13.30;56.50;;;;;;5063912;28;20061;-59
2021/04/28 07:55:46;;;;;;;6.43;1.87;;;13.40;56.00;;;;;;5066246;28;20039;-58
2021/04/28 07:58:17;;;;;;;3.37;1.70;;;13.40;55.60;;;;;;5066361;28;20036;-59
2021/04/28 08:00:43;;;;;;;3.43;2.10;;;13.50;56.30;;;;;;5068698;28;20097;-58
2021/04/28 08:03:08;;;;;;;3.67;1.97;;;13.60;55.80;;;;;;5064747;28;20032;-59
2021/04/28 08:05:34;;;;;;;9.87;2.90;;;13.70;56.00;;;;;;5065649;28;20028;-58
2021/04/28 08:08:00;;;;;;;4.90;2.63;;;13.80;55.60;;;;;;5081870;28;20028;-58
2021/04/28 08:10:25;;;;;;;6.93;2.10;;;13.90;55.70;;;;;;5065690;28;20029;-59
2021/04/28 08:12:54;;;;;;;7.27;2.20;;;14.00;56.20;;;;;;5082471;28;20079;-58
2021/04/28 08:15:20;;;;;;;2.77;2.03;;;14.10;55.40;;;;;;5066578;28;20035;-59
2021/04/28 08:17:48;;;;;;;3.23;1.73;;;14.10;54.60;;;;;;5066069;28;20028;-58
2021/04/28 08:20:14;;;;;;;5.97;2.07;;;14.10;54.80;;;;;;5051302;28;20092;-58
2021/04/28 08:22:41;;;;;;;4.90;2.00;;;14.20;53.80;;;;;;5065644;28;20037;-58
2021/04/28 08:25:09;;;;;;;4.67;2.03;;;14.30;54.10;;;;;;5066405;28;20487;-58
2021/04/28 08:27:40;;;;;;;3.40;2.13;;;14.40;54.10;;;;;;5065526;28;20024;-58
2021/04/28 08:30:09;;;;;;;7.87;2.27;;;14.50;52.60;;;;;;5064117;28;20123;-58
2021/04/28 08:32:35;;;;;;;4.47;2.20;;;14.60;52.40;;;;;;5063761;28;20066;-59
2021/04/28 08:35:02;;;;;;;4.83;1.80;;;14.60;52.40;;;;;;5064984;28;20173;-58
2021/04/28 08:37:30;;;;;;;5.73;2.67;;;14.70;52.70;;;;;;5065509;28;20054;-58
2021/04/28 08:39:56;;;;;;;7.47;2.00;;;14.80;52.00;;;;;;5065977;28;20051;-58
2021/04/28 08:42:24;;;;;;;3.13;1.97;;;14.90;52.10;;;;;;5080853;28;20060;-59
2021/04/28 08:44:50;;;;;;;11.93;2.30;;;14.90;51.30;;;;;;5063948;28;20028;-58
2021/04/28 08:47:17;;;;;;;4.57;1.90;;;14.90;51.20;;;;;;5065972;28;20591;-58
2021/04/28 08:49:43;;;;;;;3.83;1.40;;;14.90;51.20;;;;;;5066658;28;20174;-58
2021/04/28 08:52:09;;;;;;;3.70;2.00;;;15.00;50.80;;;;;;5080615;28;20024;-58
2021/04/28 08:54:39;;;;;;;4.43;2.03;;;15.20;51.60;;;;;;5065665;28;20682;-60
2021/04/28 08:57:05;;;;;;;3.13;1.70;;;15.30;51.00;;;;;;5051682;28;20036;-57
2021/04/28 08:59:33;;;;;;;3.70;1.83;;;15.50;50.70;;;;;;5064298;28;20050;-57
2021/04/28 09:02:23;;;;;;;6.07;2.20;;;15.50;51.10;;;;;;5063221;28;20032;-58
2021/04/28 09:05:09;;;;;;;4.27;1.87;;;15.60;50.20;;;;;;5064830;28;20052;-58
2021/04/28 09:07:35;;;;;;;4.57;2.20;;;15.70;49.70;;;;;;5065897;28;20443;-59
2021/04/28 09:10:04;;;;;;;4.27;2.43;;;15.90;50.00;;;;;;5064784;28;20060;-59
2021/04/28 09:12:33;;;;;;;3.10;2.20;;;15.80;49.20;;;;;;5064483;28;20040;-59
2021/04/28 09:14:59;;;;;;;4.30;2.37;;;15.90;49.60;;;;;;5065723;28;20059;-59
2021/04/28 09:17:24;;;;;;;5.73;2.27;;;15.90;48.70;;;;;;5064830;28;20463;-59
2021/04/28 09:20:15;;;;;;;5.37;2.10;;;16.00;49.70;;;;;;5065138;28;20437;-59
2021/04/28 09:22:48;;;;;;;5.23;2.07;;;16.10;49.90;;;;;;5064686;28;20063;-59
2021/04/28 09:25:13;;;;;;;8.73;3.77;;;16.20;48.40;;;;;;5065690;28;20422;-60
2021/04/28 09:27:43;;;;;;;3.90;2.30;;;16.30;48.70;;;;;;5080890;28;20032;-59
2021/04/28 09:30:22;;;;;;;2.37;1.60;;;16.40;47.90;;;;;;5065465;28;20039;-59
2021/04/28 09:32:48;;;;;;;6.00;2.20;;;16.20;48.00;;;;;;5064998;28;20726;-59
2021/04/28 09:35:20;;;;;;;3.40;2.23;;;16.60;47.80;;;;;;5064943;28;20039;-59
2021/04/28 09:38:02;;;;;;;4.82;1.77;;;16.70;46.70;;;;;;5064605;28;20032;-59
2021/04/28 09:40:42;;;;;;;6.20;2.03;;;16.80;46.40;;;;;;5064642;28;20040;-59
2021/04/28 09:43:09;;;;;;;4.13;1.57;;;16.80;46.90;;;;;;5064675;28;20028;-59
2021/04/28 09:45:37;;;;;;;5.27;2.77;;;16.90;46.50;;;;;;5064804;28;20119;-59
2021/04/28 09:48:05;;;;;;;2.97;1.87;;;17.00;45.90;;;;;;5063465;28;20500;-59
2021/04/28 09:50:30;;;;;;;4.60;2.23;;;17.00;45.60;;;;;;5064427;28;20017;-59
2021/04/28 09:52:57;;;;;;;6.03;2.20;;;17.00;45.10;;;;;;5064697;28;20125;-59
2021/04/28 09:55:26;;;;;;;4.83;1.83;;;17.10;46.40;;;;;;5067498;28;20040;-59
2021/04/28 09:57:52;;;;;;;4.63;2.50;;;17.20;45.30;;;;;;5068904;28;20043;-59
2021/04/28 10:00:28;;;;;;;3.73;1.87;;;17.20;44.70;;;;;;5068023;28;20044;-59
2021/04/28 10:02:55;;;;;;;3.47;1.83;;;17.30;45.40;;;;;;5068527;28;20460;-60
2021/04/28 10:05:25;;;;;;;3.40;1.90;;;17.40;43.30;;;;;;5068901;28;20032;-59
2021/04/28 10:08:21;;;;;;;7.73;2.77;;;17.50;44.20;;;;;;5083969;28;20063;-59
2021/04/28 10:10:48;;;;;;;5.83;2.50;;;17.50;44.20;;;;;;5068731;28;20801;-59
2021/04/28 10:13:15;;;;;;;3.27;1.60;;;17.60;42.10;;;;;;5068126;28;20044;-59
2021/04/28 10:15:43;;;;;;;3.73;1.63;;;17.70;41.10;;;;;;5069723;28;20501;-58
2021/04/28 10:18:10;;;;;;;5.77;2.27;;;17.70;41.80;;;;;;5067803;28;20037;-58
2021/04/28 10:20:41;;;;;;;5.17;2.10;;;17.90;41.60;;;;;;5067859;28;20032;-58
2021/04/28 10:23:14;;;;;;;7.00;2.50;;;17.90;40.70;;;;;;5067886;28;20158;-58
2021/04/28 10:25:41;;;;;;;6.20;2.58;;;18.00;41.50;;;;;;5067965;28;20433;-58
2021/04/28 10:28:10;;;;;;;4.73;2.00;;;18.10;40.50;;;;;;5068036;28;20070;-59
2021/04/28 10:30:47;;;;;;;4.18;2.08;;;18.20;40.10;;;;;;5083969;28;20039;-59
2021/04/28 10:33:27;;;;;;;6.10;2.38;;;18.30;40.70;;;;;;5067413;28;20085;-59
2021/04/28 10:35:53;;;;;;;5.55;2.05;;;18.40;39.90;;;;;;5067441;28;20488;-59
2021/04/28 10:38:23;;;;;;;5.40;2.80;;;18.40;39.10;;;;;;5068200;28;20032;-59
2021/04/28 10:40:49;;;;;;;5.32;2.10;;;18.40;39.10;;;;;;5068832;28;20491;-59
2021/04/28 10:43:17;;;;;;;5.13;2.53;;;18.50;38.90;;;;;;5066642;28;20036;-59
2021/04/28 10:45:43;;;;;;;3.38;1.80;;;18.50;39.10;;;;;;5068599;28;20048;-59
2021/04/28 10:48:12;;;;;;;5.32;2.85;;;18.60;39.70;;;;;;5064756;28;20089;-59
2021/04/28 10:50:46;;;;;;;5.85;2.38;;;18.70;40.40;;;;;;5067430;28;20051;-59
2021/04/28 10:53:28;;;;;;;5.20;2.53;;;18.80;39.80;;;;;;5067746;28;20028;-58
2021/04/28 10:56:15;;;;;;;5.45;2.15;;;18.90;38.20;;;;;;5068282;28;20039;-59
2021/04/28 10:58:50;;;;;;;6.20;2.83;;;18.90;39.10;;;;;;5082841;28;20447;-58
2021/04/28 11:01:18;;;;;;;5.10;1.75;;;19.00;38.70;;;;;;5067282;28;20049;-58
2021/04/28 11:03:55;;;;;;;4.25;2.10;;;19.10;38.40;;;;;;5067730;28;20066;-58
2021/04/28 11:06:22;;;;;;;2.92;1.95;;;19.10;39.20;;;;;;5067053;28;20021;-58
2021/04/28 11:08:54;;;;;;;8.23;2.40;;;19.20;39.20;;;;;;5066625;28;20081;-58
2021/04/28 11:11:32;;;;;;;4.75;2.55;;;19.30;38.40;;;;;;5068180;28;20913;-58
2021/04/28 11:14:17;;;;;;;5.75;2.17;;;19.40;38.50;;;;;;5067981;28;20024;-59
2021/04/28 11:16:44;;;;;;;6.43;2.28;;;19.40;38.90;;;;;;5066721;28;20107;-58
2021/04/28 11:19:22;;;;;;;3.80;2.45;;;19.40;39.00;;;;;;5065922;28;20047;-58
2021/04/28 11:22:11;;;;;;;4.25;2.00;;;19.50;39.30;;;;;;5051191;28;20024;-59
2021/04/28 11:25:07;;;;;;;6.47;2.90;;;19.70;37.90;;;;;;5066757;28;20028;-59
2021/04/28 11:27:58;;;;;;;5.80;2.25;;;20.00;37.20;;;;;;5083491;28;20468;-58
2021/04/28 11:30:28;;;;;;;5.60;2.85;;;20.00;36.70;;;;;;5064888;28;20039;-59
2021/04/28 11:33:11;;;;;;;5.70;2.50;;;20.00;36.60;;;;;;5067089;28;20369;-58
2021/04/28 11:35:39;;;;;;;6.05;2.50;;;20.00;36.50;;;;;;5066359;28;20077;-58
2021/04/28 11:38:09;;;;;;;5.30;2.30;;;20.10;36.70;;;;;;5066993;28;20040;-59
2021/04/28 11:41:02;;;;;;;7.28;2.80;;;20.20;37.80;;;;;;5064589;28;20472;-58
2021/04/28 11:43:30;;;;;;;5.32;2.78;;;20.50;36.70;;;;;;5066019;28;20039;-58
2021/04/28 11:46:09;;;;;;;5.80;2.83;;;20.70;36.00;;;;;;5066586;28;20668;-59
2021/04/28 11:48:37;;;;;;;6.68;2.70;;;20.80;36.60;;;;;;5066243;28;20035;-58
2021/04/28 11:51:18;;;;;;;3.95;2.30;;;20.90;37.10;;;;;;5065818;28;20031;-59
2021/04/28 11:53:52;;;;;;;5.32;2.97;;;21.10;36.70;;;;;;5066151;28;20071;-58
2021/04/28 11:56:30;;;;;;;6.72;2.85;;;21.60;36.20;;;;;;5082167;28;20038;-59
2021/04/28 11:58:57;;;;;;;5.85;2.92;;;22.60;35.00;;;;;;5081501;28;20059;-59
2021/04/28 12:01:26;;;;;;;5.13;2.63;;;23.30;34.00;;;;;;5065666;28;20128;-59
2021/04/28 12:04:00;;;;;;;6.65;3.08;;;24.20;32.80;;;;;;5065419;28;20028;-59
2021/04/28 12:06:33;;;;;;;4.72;2.70;;;24.80;31.60;;;;;;5080912;28;20036;-59
2021/04/28 12:09:15;;;;;;;6.97;3.40;;;24.20;32.00;;;;;;5066070;28;20033;-59
2021/04/28 12:11:46;;;;;;;5.68;2.55;;;23.70;32.80;;;;;;5065505;28;20445;-59
2021/04/28 12:14:12;;;;;;;6.20;3.25;;;24.70;32.00;;;;;;5066149;28;20032;-58
2021/04/28 12:16:57;;;;;;;4.85;2.60;;;25.70;32.10;;;;;;5063646;28;20420;-58
2021/04/28 12:19:24;;;;;;;4.45;2.58;;;26.10;31.00;;;;;;5064751;28;20032;-59
2021/04/28 12:22:01;;;;;;;6.60;2.65;;;26.10;32.00;;;;;;5065507;28;20502;-59
2021/04/28 12:24:41;;;;;;;6.03;2.13;;;25.70;31.40;;;;;;5065935;28;20032;-59
2021/04/28 12:27:15;;;;;;;7.43;2.97;;;26.10;31.00;;;;;;5065135;28;20036;-59
2021/04/28 12:29:43;;;;;;;5.30;2.88;;;26.50;30.50;;;;;;5065725;28;20023;-59
2021/04/28 12:32:10;;;;;;;8.00;3.10;;;27.10;29.90;;;;;;5065018;28;20062;-59
2021/04/28 12:34:37;;;;;;;6.68;3.28;;;28.50;29.40;;;;;;5063765;28;20357;-59
2021/04/28 12:37:08;;;;;;;5.13;2.88;;;29.20;29.20;;;;;;5065525;28;20028;-59
2021/04/28 12:39:34;;;;;;;4.35;1.92;;;29.10;28.70;;;;;;5081244;28;20028;-59
2021/04/28 12:42:00;;;;;;;5.28;2.03;;;28.70;29.40;;;;;;5065494;28;20051;-59
2021/04/28 12:44:26;;;;;;;5.05;2.90;;;27.50;29.20;;;;;;5065381;28;20094;-59
2021/04/28 12:46:54;;;;;;;8.20;3.70;;;27.00;29.60;;;;;;5064992;28;20030;-59
2021/04/28 12:49:24;;;;;;;5.93;2.45;;;26.10;29.80;;;;;;5065173;28;20541;-59
2021/04/28 12:51:56;;;;;;;4.88;2.55;;;26.00;30.40;;;;;;5064844;28;20043;-59
2021/04/28 12:54:33;;;;;;;5.47;2.45;;;26.40;30.60;;;;;;5066043;28;20475;-59
2021/04/28 12:57:02;;;;;;;8.98;3.08;;;25.80;30.50;;;;;;5080413;28;20117;-60
2021/04/28 12:59:28;;;;;;;5.28;2.97;;;25.80;30.80;;;;;;5064645;28;20146;-59